createdAt,value
2023-01-20T00:01:52.433Z,101187.03
2023-01-20T00:03:58.737Z,101187.03
2023-01-20T00:06:03.488Z,101185.25
2023-01-20T00:08:07.752Z,101188.72
2023-01-20T00:10:12.600Z,101185.25
2023-01-20T00:12:16.195Z,101188.72
2023-01-20T00:14:19.794Z,101187.00
2023-01-20T00:16:23.859Z,101182.63
2023-01-20T00:18:27.629Z,101187.84
2023-01-20T00:20:32.865Z,101187.84
2023-01-20T00:22:40.350Z,101186.16
2023-01-20T00:24:44.041Z,101192.25
2023-01-20T00:26:47.728Z,101195.75
2023-01-20T00:28:54.418Z,101197.47
2023-01-20T00:30:58.256Z,101191.44
2023-01-20T00:33:01.817Z,101192.31
2023-01-20T00:35:05.826Z,101194.09
2023-01-20T00:37:10.863Z,101194.13
2023-01-20T00:39:14.549Z,101194.97
2023-01-20T00:41:18.879Z,101195.00
2023-01-20T00:43:22.569Z,101193.25
2023-01-20T00:45:26.261Z,101183.69
2023-01-20T00:47:30.067Z,101188.06
2023-01-20T00:49:33.789Z,101186.28
2023-01-20T00:51:37.455Z,101187.22
2023-01-20T00:53:42.579Z,101192.41
2023-01-20T00:55:46.479Z,101190.69
2023-01-20T00:57:50.024Z,101190.69
2023-01-20T00:59:53.625Z,101188.97
2023-01-20T01:01:57.559Z,101187.22
2023-01-20T01:04:01.439Z,101186.34
2023-01-20T01:06:10.222Z,101186.38
2023-01-20T01:08:14.340Z,101189.03
2023-01-20T01:10:19.596Z,101193.47
2023-01-20T01:12:23.161Z,101197.00
2023-01-20T01:14:26.905Z,101198.78
2023-01-20T01:16:30.433Z,101204.94
2023-01-20T01:18:34.083Z,101197.16
2023-01-20T01:20:40.819Z,101197.22
2023-01-20T01:22:44.544Z,101195.50
2023-01-20T01:24:48.292Z,101197.28
2023-01-20T01:26:54.841Z,101197.31
2023-01-20T01:28:59.468Z,101201.69
2023-01-20T01:31:03.772Z,101190.44
2023-01-20T01:33:07.543Z,101196.56
2023-01-20T01:35:12.092Z,101199.19
2023-01-20T01:37:16.111Z,101195.72
2023-01-20T01:39:19.755Z,101194.03
2023-01-20T01:41:23.421Z,101198.38
2023-01-20T01:43:30.297Z,101200.13
2023-01-20T01:45:34.426Z,101193.19
2023-01-20T01:47:40.234Z,101195.78
2023-01-20T01:49:43.923Z,101201.00
2023-01-20T01:51:52.865Z,101204.50
2023-01-20T01:54:01.564Z,101214.03
2023-01-20T01:56:05.313Z,101207.09
2023-01-20T01:58:13.020Z,101207.09
2023-01-20T02:00:19.066Z,101208.75
2023-01-20T02:02:24.022Z,101213.03
2023-01-20T02:04:28.835Z,101217.31
2023-01-20T02:06:34.606Z,101219.00
2023-01-20T02:08:38.844Z,101223.31
2023-01-20T02:10:42.126Z,101233.69
2023-01-20T02:12:49.741Z,101231.03
2023-01-20T02:14:56.286Z,101224.09
2023-01-20T02:17:06.320Z,101230.97
2023-01-20T02:19:35.397Z,101230.06
2023-01-20T02:22:15.102Z,101240.47
2023-01-20T02:25:03.810Z,101239.56
2023-01-20T02:27:09.921Z,101243.06
2023-01-20T02:29:46.298Z,101250.00
2023-01-20T02:32:05.683Z,101245.66
2023-01-20T02:34:14.384Z,101236.97
2023-01-20T02:36:26.842Z,101234.38
2023-01-20T02:38:34.989Z,101239.56
2023-01-20T02:40:45.384Z,101239.56
2023-01-20T02:42:56.649Z,101243.94
2023-01-20T02:45:06.536Z,101252.63
2023-01-20T02:47:16.400Z,101249.16
2023-01-20T02:49:24.476Z,101251.78
2023-01-20T02:51:33.521Z,101254.38
2023-01-20T02:53:43.158Z,101255.25
2023-01-20T02:55:49.539Z,101261.41
2023-01-20T02:57:57.523Z,101265.78
2023-01-20T03:00:15.876Z,101264.09
2023-01-20T03:02:24.139Z,101275.38
2023-01-20T03:04:31.557Z,101265.84
2023-01-20T03:06:39.263Z,101259.78
2023-01-20T03:08:42.839Z,101265.00
2023-01-20T03:10:48.517Z,101262.38
2023-01-20T03:12:55.924Z,101260.59
2023-01-20T03:14:59.246Z,101263.19
2023-01-20T03:17:05.009Z,101266.72
2023-01-20T03:19:09.780Z,101273.66
2023-01-20T03:21:14.309Z,101271.06
2023-01-20T03:23:17.627Z,101264.13
2023-01-20T03:25:21.850Z,101276.31
2023-01-20T03:27:25.548Z,101287.59
2023-01-20T03:29:30.697Z,101282.41
2023-01-20T03:31:37.928Z,101277.16
2023-01-20T03:33:41.277Z,101282.34
2023-01-20T03:35:46.309Z,101284.09
2023-01-20T03:37:49.774Z,101290.16
2023-01-20T03:39:53.579Z,101288.44
2023-01-20T03:42:08.435Z,101281.50
2023-01-20T03:44:15.537Z,101284.09
2023-01-20T03:46:28.784Z,101282.34
2023-01-20T03:48:40.713Z,101281.44
2023-01-20T03:50:53.187Z,101281.44
2023-01-20T03:53:02.727Z,101284.84
2023-01-20T03:55:12.394Z,101283.09
2023-01-20T03:57:20.029Z,101279.59
2023-01-20T03:59:24.973Z,101267.41
2023-01-20T04:01:33.990Z,101273.47
2023-01-20T04:03:41.344Z,101277.00
2023-01-20T04:05:47.835Z,101281.31
2023-01-20T04:07:53.050Z,101276.97
2023-01-20T04:10:05.619Z,101283.94
2023-01-20T04:12:09.091Z,101283.94
2023-01-20T04:14:12.675Z,101279.59
2023-01-20T04:16:18.965Z,101283.09
2023-01-20T04:18:25.358Z,101278.78
2023-01-20T04:20:28.793Z,101281.41
2023-01-20T04:22:40.363Z,101280.56
2023-01-20T04:24:45.777Z,101285.84
2023-01-20T04:26:49.432Z,101284.97
2023-01-20T04:28:52.978Z,101286.75
2023-01-20T04:30:56.882Z,101281.53
2023-01-20T04:33:00.621Z,101285.91
2023-01-20T04:35:04.147Z,101285.94
2023-01-20T04:37:07.872Z,101283.38
2023-01-20T04:39:13.097Z,101278.19
2023-01-20T04:41:16.694Z,101280.84
2023-01-20T04:43:20.327Z,101289.56
2023-01-20T04:45:23.821Z,101294.78
2023-01-20T04:47:27.734Z,101291.38
2023-01-20T04:49:31.403Z,101288.78
2023-01-20T04:51:35.496Z,101287.06
2023-01-20T04:53:39.183Z,101287.94
2023-01-20T04:55:44.392Z,101287.09
2023-01-20T04:57:49.408Z,101285.41
2023-01-20T04:59:53.193Z,101282.81
2023-01-20T05:01:56.824Z,101283.69
2023-01-20T05:04:00.562Z,101288.91
2023-01-20T05:06:04.101Z,101288.03
2023-01-20T05:08:08.018Z,101288.06
2023-01-20T05:10:13.349Z,101281.16
2023-01-20T05:12:18.515Z,101284.63
2023-01-20T05:14:21.967Z,101279.44
2023-01-20T05:16:26.328Z,101277.75
2023-01-20T05:18:30.423Z,101286.44
2023-01-20T05:20:35.463Z,101289.97
2023-01-20T05:22:38.895Z,101296.91
2023-01-20T05:24:42.417Z,101297.78
2023-01-20T05:26:45.930Z,101304.81
2023-01-20T05:28:51.299Z,101308.34
2023-01-20T05:30:54.796Z,101306.66
2023-01-20T05:32:58.529Z,101304.94
2023-01-20T05:35:02.234Z,101306.66
2023-01-20T05:37:06.084Z,101305.81
2023-01-20T05:39:09.727Z,101306.63
2023-01-20T05:41:13.340Z,101306.66
2023-01-20T05:43:17.038Z,101308.38
2023-01-20T05:45:22.097Z,101305.78
2023-01-20T05:47:25.913Z,101306.66
2023-01-20T05:49:29.513Z,101307.56
2023-01-20T05:51:33.570Z,101312.75
2023-01-20T05:53:37.214Z,101317.06
2023-01-20T05:55:40.888Z,101312.75
2023-01-20T05:57:44.399Z,101311.00
2023-01-20T05:59:48.680Z,101311.84
2023-01-20T06:01:53.648Z,101310.13
2023-01-20T06:03:57.470Z,101316.19
2023-01-20T06:06:02.240Z,101315.38
2023-01-20T06:08:06.446Z,101318.84
2023-01-20T06:10:11.462Z,101317.97
2023-01-20T06:12:15.131Z,101315.38
2023-01-20T06:14:18.932Z,101323.19
2023-01-20T06:16:22.644Z,101315.41
2023-01-20T06:18:27.853Z,101321.53
2023-01-20T06:20:31.748Z,101325.00
2023-01-20T06:22:35.411Z,101325.91
2023-01-20T06:24:39.106Z,101324.16
2023-01-20T06:26:42.745Z,101322.44
2023-01-20T06:28:46.521Z,101337.19
2023-01-20T06:30:50.140Z,101336.31
2023-01-20T06:32:54.768Z,101345.00
2023-01-20T06:34:59.819Z,101347.59
2023-01-20T06:37:04.047Z,101337.19
2023-01-20T06:39:07.783Z,101338.91
2023-01-20T06:41:12.512Z,101341.56
2023-01-20T06:43:16.333Z,101337.25
2023-01-20T06:45:19.916Z,101335.47
2023-01-20T06:47:23.325Z,101329.41
2023-01-20T06:49:27.162Z,101343.31
2023-01-20T06:51:33.599Z,101342.41
2023-01-20T06:53:37.505Z,101339.81
2023-01-20T06:55:41.180Z,101344.19
2023-01-20T06:57:44.746Z,101345.06
2023-01-20T06:59:48.507Z,101347.69
2023-01-20T07:01:52.304Z,101344.22
2023-01-20T07:03:56.643Z,101345.97
2023-01-20T07:06:03.290Z,101346.84
2023-01-20T07:08:08.627Z,101353.81
2023-01-20T07:10:12.917Z,101361.59
2023-01-20T07:12:16.424Z,101355.53
2023-01-20T07:14:20.271Z,101360.75
2023-01-20T07:16:24.110Z,101365.13
2023-01-20T07:18:27.934Z,101366.00
2023-01-20T07:20:31.637Z,101366.94
2023-01-20T07:22:35.251Z,101366.97
2023-01-20T07:24:40.309Z,101371.34
2023-01-20T07:26:44.198Z,101369.59
2023-01-20T07:28:48.353Z,101373.91
2023-01-20T07:30:52.107Z,101380.84
2023-01-20T07:32:55.830Z,101379.13
2023-01-20T07:34:59.495Z,101384.34
2023-01-20T07:37:04.397Z,101379.13
2023-01-20T07:39:08.532Z,101387.78
2023-01-20T07:41:16.477Z,101386.94
2023-01-20T07:43:20.506Z,101390.47
2023-01-20T07:45:24.159Z,101386.16
2023-01-20T07:47:27.991Z,101381.81
2023-01-20T07:49:32.050Z,101390.47
2023-01-20T07:51:35.962Z,101390.47
2023-01-20T07:53:41.857Z,101397.41
2023-01-20T07:55:45.515Z,101389.56
2023-01-20T07:57:50.946Z,101390.47
2023-01-20T07:59:54.696Z,101397.41
2023-01-20T08:01:58.144Z,101393.91
2023-01-20T08:04:02.295Z,101401.69
2023-01-20T08:06:06.358Z,101400.88
2023-01-20T08:08:09.902Z,101398.28
2023-01-20T08:10:13.681Z,101391.38
2023-01-20T08:12:17.573Z,101392.25
2023-01-20T08:14:22.579Z,101393.97
2023-01-20T08:16:26.075Z,101397.44
2023-01-20T08:18:30.221Z,101402.66
2023-01-20T08:20:33.700Z,101402.66
2023-01-20T08:22:37.629Z,101408.69
2023-01-20T08:24:41.390Z,101400.94
2023-01-20T08:26:45.224Z,101413.06
2023-01-20T08:28:49.499Z,101416.53
2023-01-20T08:30:54.989Z,101411.41
2023-01-20T08:32:58.586Z,101410.56
2023-01-20T08:35:02.264Z,101413.16
2023-01-20T08:37:06.057Z,101409.69
2023-01-20T08:39:15.597Z,101410.56
2023-01-20T08:41:21.418Z,101420.13
2023-01-20T08:43:25.119Z,101414.09
2023-01-20T08:45:28.877Z,101418.44
2023-01-20T08:47:36.671Z,101413.19
2023-01-20T08:49:40.497Z,101415.78
2023-01-20T08:51:45.272Z,101418.38
2023-01-20T08:53:49.623Z,101421.00
2023-01-20T08:55:57.632Z,101421.88
2023-01-20T08:58:02.779Z,101430.47
2023-01-20T09:00:09.684Z,101430.47
2023-01-20T09:02:13.368Z,101428.72
2023-01-20T09:04:18.467Z,101435.63
2023-01-20T09:06:22.794Z,101431.25
2023-01-20T09:08:27.244Z,101443.38
2023-01-20T09:10:33.301Z,101438.16
2023-01-20T09:12:37.852Z,101442.44
2023-01-20T09:14:41.559Z,101447.63
2023-01-20T09:16:45.988Z,101445.00
2023-01-20T09:18:49.882Z,101445.91
2023-01-20T09:20:54.841Z,101442.44
2023-01-20T09:23:03.189Z,101447.66
2023-01-20T09:25:08.057Z,101451.13
2023-01-20T09:27:11.943Z,101450.28
2023-01-20T09:29:17.522Z,101450.28
2023-01-20T09:31:21.235Z,101458.94
2023-01-20T09:33:25.236Z,101458.94
2023-01-20T09:35:29.036Z,101458.91
2023-01-20T09:37:51.792Z,101465.81
2023-01-20T09:40:12.620Z,101459.72
2023-01-20T09:42:48.315Z,101459.69
2023-01-20T09:44:57.786Z,101457.94
2023-01-20T09:47:22.711Z,101455.38
2023-01-20T09:49:52.239Z,101457.06
2023-01-20T09:52:24.793Z,101457.94
2023-01-20T09:54:40.003Z,101458.78
2023-01-20T09:56:49.399Z,101469.19
2023-01-20T09:58:59.208Z,101468.28
2023-01-20T10:01:11.358Z,101474.31
2023-01-20T10:03:19.711Z,101476.00
2023-01-20T10:05:30.682Z,101477.66
2023-01-20T10:07:42.523Z,101478.47
2023-01-20T10:09:55.983Z,101484.44
2023-01-20T10:12:07.394Z,101481.72
2023-01-20T10:14:18.532Z,101481.59
2023-01-20T10:16:30.510Z,101482.31
2023-01-20T10:18:41.910Z,101481.28
2023-01-20T10:20:50.173Z,101487.22
2023-01-20T10:22:57.526Z,101490.66
2023-01-20T10:25:08.147Z,101482.75
2023-01-20T10:27:11.743Z,101481.69
2023-01-20T10:29:21.642Z,101472.84
2023-01-20T10:31:28.716Z,101471.75
2023-01-20T10:33:36.209Z,101475.06
2023-01-20T10:35:43.398Z,101479.19
2023-01-20T10:37:47.235Z,101490.31
2023-01-20T10:39:56.046Z,101483.16
2023-01-20T10:42:05.478Z,101489.84
2023-01-20T10:44:13.477Z,101486.16
2023-01-20T10:46:28.767Z,101495.47
2023-01-20T10:48:51.776Z,101492.59
2023-01-20T10:51:04.548Z,101501.88
2023-01-20T10:53:30.576Z,101494.59
2023-01-20T10:55:44.825Z,101491.75
2023-01-20T10:57:54.838Z,101494.19
2023-01-20T11:00:02.296Z,101504.47
2023-01-20T11:02:16.962Z,101513.03
2023-01-20T11:04:22.727Z,101504.97
2023-01-20T11:06:28.316Z,101503.91
2023-01-20T11:08:32.187Z,101503.78
2023-01-20T11:10:35.755Z,101501.13
2023-01-20T11:12:43.113Z,101499.28
2023-01-20T11:14:49.118Z,101507.91
2023-01-20T11:16:58.721Z,101511.16
2023-01-20T11:19:04.222Z,101509.16
2023-01-20T11:21:11.041Z,101503.72
2023-01-20T11:23:22.978Z,101504.47
2023-01-20T11:25:29.348Z,101514.72
2023-01-20T11:27:42.139Z,101511.84
2023-01-20T11:29:52.461Z,101514.41
2023-01-20T11:31:58.736Z,101511.63
2023-01-20T11:34:05.177Z,101515.78
2023-01-20T11:36:19.123Z,101521.88
2023-01-20T11:38:25.509Z,101508.63
2023-01-20T11:40:30.751Z,101510.22
2023-01-20T11:42:43.717Z,101504.91
2023-01-20T11:44:50.254Z,101506.50
2023-01-20T11:46:54.258Z,101509.03
2023-01-20T11:49:25.556Z,101515.03
2023-01-20T11:51:29.511Z,101514.88
2023-01-20T11:53:35.075Z,101507.75
2023-01-20T11:55:48.260Z,101513.75
2023-01-20T11:57:54.996Z,101509.22
2023-01-20T12:00:00.547Z,101510.84
2023-01-20T12:02:24.980Z,101517.78
2023-01-20T12:04:46.365Z,101516.78
2023-01-20T12:06:58.017Z,101514.91
2023-01-20T12:09:05.116Z,101514.81
2023-01-20T12:11:12.368Z,101512.91
2023-01-20T12:13:21.931Z,101518.94
2023-01-20T12:15:30.819Z,101515.31
2023-01-20T12:17:47.670Z,101516.09
2023-01-20T12:20:07.685Z,101518.66
2023-01-20T12:22:15.930Z,101513.41
2023-01-20T12:24:35.415Z,101508.91
2023-01-20T12:26:46.246Z,101509.66
2023-01-20T12:29:00.652Z,101504.50
2023-01-20T12:31:08.362Z,101503.66
2023-01-20T12:33:20.978Z,101501.81
2023-01-20T12:35:29.303Z,101504.41
2023-01-20T12:37:44.225Z,101506.22
2023-01-20T12:40:04.703Z,101507.19
2023-01-20T12:42:41.386Z,101504.59
2023-01-20T12:44:49.609Z,101512.44
2023-01-20T12:47:04.544Z,101505.41
2023-01-20T12:49:35.042Z,101503.66
2023-01-20T12:51:52.446Z,101510.69
2023-01-20T12:54:11.698Z,101511.69
2023-01-20T12:56:26.810Z,101515.34
2023-01-20T12:58:45.622Z,101523.28
2023-01-20T13:01:08.019Z,101520.75
2023-01-20T13:03:43.306Z,101519.91
2023-01-20T13:06:15.517Z,101516.56
2023-01-20T13:08:26.390Z,101519.22
2023-01-20T13:10:53.015Z,101514.91
2023-01-20T13:13:02.049Z,101519.91
2023-01-20T13:15:19.158Z,101513.81
2023-01-20T13:17:29.360Z,101514.72
2023-01-20T13:19:39.249Z,101517.47
2023-01-20T13:21:43.626Z,101507.97
2023-01-20T13:23:48.934Z,101509.75
2023-01-20T13:25:54.955Z,101508.03
2023-01-20T13:27:59.724Z,101506.34
2023-01-20T13:30:07.175Z,101505.47
2023-01-20T13:32:29.968Z,101507.72
2023-01-20T13:34:37.174Z,101511.63
2023-01-20T13:36:41.118Z,101517.53
2023-01-20T13:38:46.139Z,101518.22
2023-01-20T13:40:58.853Z,101518.06
2023-01-20T13:43:03.077Z,101522.34
2023-01-20T13:45:27.949Z,101530.34
2023-01-20T13:47:52.596Z,101542.72
2023-01-20T13:49:58.215Z,101536.78
2023-01-20T13:52:02.329Z,101540.31
2023-01-20T13:54:36.131Z,101545.53
2023-01-20T13:56:40.561Z,101546.41
2023-01-20T13:58:45.156Z,101541.84
2023-01-20T14:00:52.360Z,101553.09
2023-01-20T14:02:58.230Z,101546.75
2023-01-20T14:05:03.820Z,101557.00
2023-01-20T14:07:23.508Z,101557.88
2023-01-20T14:09:28.037Z,101554.38
2023-01-20T14:11:33.472Z,101555.34
2023-01-20T14:13:37.728Z,101558.13
2023-01-20T14:15:42.425Z,101557.44
2023-01-20T14:17:55.049Z,101568.91
2023-01-20T14:19:59.391Z,101568.13
2023-01-20T14:22:18.411Z,101572.63
2023-01-20T14:24:30.285Z,101573.56
2023-01-20T14:26:34.502Z,101574.50
2023-01-20T14:28:48.240Z,101566.66
2023-01-20T14:31:06.134Z,101561.38
2023-01-20T14:33:16.185Z,101572.63
2023-01-20T14:35:27.837Z,101573.56
2023-01-20T14:37:36.587Z,101576.28
2023-01-20T14:39:42.585Z,101576.44
2023-01-20T14:41:49.886Z,101581.78
2023-01-20T14:43:54.053Z,101584.50
2023-01-20T14:45:58.353Z,101590.69
2023-01-20T14:51:01.403Z,101606.63
2023-01-20T14:53:08.117Z,101604.00
2023-01-20T14:55:31.747Z,101610.97
2023-01-20T14:57:45.716Z,101606.47
2023-01-20T15:00:03.952Z,101604.50
2023-01-20T15:02:16.439Z,101606.06
2023-01-20T15:04:21.674Z,101612.94
2023-01-20T15:06:27.744Z,101608.50
2023-01-20T15:09:04.396Z,101616.41
2023-01-20T15:11:23.007Z,101624.44
2023-01-20T15:13:31.387Z,101624.47
2023-01-20T15:15:36.090Z,101618.44
2023-01-20T15:17:59.358Z,101625.50
2023-01-20T15:20:03.790Z,101631.66
2023-01-20T15:22:24.157Z,101629.03
2023-01-20T15:24:32.993Z,101628.19
2023-01-20T15:26:39.326Z,101628.25
2023-01-20T15:28:46.166Z,101628.25
2023-01-20T15:30:51.173Z,101632.72
2023-01-20T15:32:56.040Z,101634.47
2023-01-20T15:35:00.765Z,101636.16
2023-01-20T15:37:11.489Z,101636.16
2023-01-20T15:39:16.766Z,101637.00
2023-01-20T15:41:22.676Z,101641.31
2023-01-20T15:43:27.517Z,101642.13
2023-01-20T15:45:32.008Z,101642.13
2023-01-20T15:47:36.774Z,101647.31
2023-01-20T15:49:41.590Z,101654.25
2023-01-20T15:51:47.083Z,101658.63
2023-01-20T15:53:51.606Z,101661.25
2023-01-20T15:55:56.368Z,101664.72
2023-01-20T15:58:02.139Z,101671.78
2023-01-20T16:00:07.534Z,101667.47
2023-01-20T16:02:20.157Z,101661.44
2023-01-20T16:04:24.352Z,101671.97
2023-01-20T16:06:32.672Z,101678.22
2023-01-20T16:08:39.512Z,101673.09
2023-01-20T16:10:43.859Z,101681.09
2023-01-20T16:12:48.899Z,101685.63
2023-01-20T16:14:55.390Z,101688.44
2023-01-20T16:17:00.429Z,101692.03
2023-01-20T16:19:05.044Z,101700.06
2023-01-20T16:21:09.530Z,101700.25
2023-01-20T16:23:13.540Z,101705.66
2023-01-20T16:25:17.769Z,101711.03
2023-01-20T16:27:23.087Z,101704.13
2023-01-20T16:29:26.874Z,101708.59
2023-01-20T16:31:33.759Z,101713.00
2023-01-20T16:33:37.601Z,101712.22
2023-01-20T16:35:41.473Z,101710.56
2023-01-20T16:37:47.913Z,101719.34
2023-01-20T16:39:51.878Z,101723.84
2023-01-20T16:41:55.631Z,101723.06
2023-01-20T16:43:59.881Z,101726.63
2023-01-20T16:46:03.789Z,101728.56
2023-01-20T16:48:09.772Z,101738.31
2023-01-20T16:50:14.714Z,101743.66
2023-01-20T16:52:18.599Z,101741.22
2023-01-20T16:54:22.568Z,101743.06
2023-01-20T16:56:28.759Z,101740.56
2023-01-20T16:58:32.563Z,101755.53
2023-01-20T17:00:36.523Z,101753.88
2023-01-20T17:02:40.667Z,101754.00
2023-01-20T17:04:46.033Z,101749.72
2023-01-20T17:06:49.597Z,101747.19
2023-01-20T17:08:55.886Z,101751.69
2023-01-20T17:10:59.676Z,101751.88
2023-01-20T17:13:04.048Z,101753.66
2023-01-20T17:15:09.155Z,101749.34
2023-01-20T17:17:13.135Z,101748.53
2023-01-20T17:19:17.865Z,101754.63
2023-01-20T17:21:24.512Z,101758.06
2023-01-20T17:23:29.095Z,101764.97
2023-01-20T17:25:33.392Z,101764.91
2023-01-20T17:27:38.763Z,101775.34
2023-01-20T17:29:42.800Z,101772.63
2023-01-20T17:31:47.186Z,101782.97
2023-01-20T17:33:52.106Z,101787.31
2023-01-20T17:35:59.041Z,101791.66
2023-01-20T17:38:04.397Z,101792.47
2023-01-20T17:40:09.831Z,101803.78
2023-01-20T17:42:15.475Z,101808.09
2023-01-20T17:44:20.699Z,101804.56
2023-01-20T17:46:27.941Z,101808.88
2023-01-20T17:48:31.813Z,101806.25
2023-01-20T17:50:35.461Z,101807.97
2023-01-20T17:52:39.267Z,101809.78
2023-01-20T17:54:44.620Z,101805.34
2023-01-20T17:56:48.864Z,101815.78
2023-01-20T17:58:54.238Z,101823.59
2023-01-20T18:00:57.627Z,101822.72
2023-01-20T18:03:01.549Z,101820.94
2023-01-20T18:05:05.803Z,101830.56
2023-01-20T18:07:10.565Z,101829.63
2023-01-20T18:09:16.273Z,101827.00
2023-01-20T18:11:23.252Z,101827.97
2023-01-20T18:13:26.922Z,101823.56
2023-01-20T18:15:30.886Z,101829.59
2023-01-20T18:17:35.135Z,101843.56
2023-01-20T18:19:39.404Z,101837.41
2023-01-20T18:21:44.869Z,101843.41
2023-01-20T18:23:50.206Z,101837.22
2023-01-20T18:25:56.706Z,101845.94
2023-01-20T18:28:02.305Z,101852.94
2023-01-20T18:30:07.321Z,101855.47
2023-01-20T18:32:11.227Z,101851.06
2023-01-20T18:34:17.018Z,101854.47
2023-01-20T18:36:23.856Z,101852.56
2023-01-20T18:38:27.708Z,101848.06
2023-01-20T18:40:32.301Z,101850.63
2023-01-20T18:42:36.390Z,101853.28
2023-01-20T18:44:41.838Z,101854.00
2023-01-20T18:46:49.123Z,101855.69
2023-01-20T18:48:55.635Z,101862.66
2023-01-20T18:51:03.940Z,101863.53
2023-01-20T18:53:10.223Z,101865.22
2023-01-20T18:55:14.682Z,101868.78
2023-01-20T18:57:19.131Z,101866.97
2023-01-20T18:59:23.500Z,101866.09
2023-01-20T19:01:32.733Z,101866.13
2023-01-20T19:03:37.667Z,101864.34
2023-01-20T19:05:43.041Z,101872.25
2023-01-20T19:07:51.954Z,101876.59
2023-01-20T19:09:57.879Z,101874.81
2023-01-20T19:12:05.993Z,101886.22
2023-01-20T19:14:15.033Z,101886.28
2023-01-20T19:16:24.380Z,101883.69
2023-01-20T19:18:31.655Z,101890.56
2023-01-20T19:20:37.744Z,101883.53
2023-01-20T19:22:42.725Z,101889.63
2023-01-20T19:24:49.616Z,101893.13
2023-01-20T19:26:55.991Z,101895.66
2023-01-20T19:29:02.639Z,101892.03
2023-01-20T19:31:08.972Z,101897.16
2023-01-20T19:33:16.683Z,101898.84
2023-01-20T19:35:23.003Z,101904.13
2023-01-20T19:37:28.938Z,101911.22
2023-01-20T19:39:33.081Z,101906.03
2023-01-20T19:41:39.552Z,101917.44
2023-01-20T19:43:44.978Z,101920.16
2023-01-20T19:45:50.447Z,101922.03
2023-01-20T19:48:01.401Z,101923.06
2023-01-20T19:50:10.790Z,101922.16
2023-01-20T19:52:16.982Z,101925.69
2023-01-20T19:54:21.563Z,101926.56
2023-01-20T19:56:28.143Z,101930.94
2023-01-20T19:58:32.623Z,101926.56
2023-01-20T20:00:37.870Z,101925.75
2023-01-20T20:02:42.881Z,101927.41
2023-01-20T20:04:47.632Z,101932.59
2023-01-20T20:06:52.541Z,101938.59
2023-01-20T20:09:01.936Z,101941.94
2023-01-20T20:11:07.484Z,101941.03
2023-01-20T20:13:13.772Z,101946.28
2023-01-20T20:15:18.865Z,101948.06
2023-01-20T20:17:23.838Z,101949.88
2023-01-20T20:19:28.632Z,101950.81
2023-01-20T20:21:33.512Z,101949.97
2023-01-20T20:23:37.796Z,101950.81
2023-01-20T20:25:51.740Z,101958.56
2023-01-20T20:27:58.105Z,101962.03
2023-01-20T20:30:04.372Z,101960.31
2023-01-20T20:32:09.994Z,101959.44
2023-01-20T20:34:17.727Z,101972.44
2023-01-20T20:36:22.397Z,101976.75
2023-01-20T20:38:27.011Z,101976.69
2023-01-20T20:40:32.201Z,101979.25
2023-01-20T20:42:38.074Z,101982.72
2023-01-20T20:44:43.648Z,101985.38
2023-01-20T20:46:49.603Z,101991.47
2023-01-20T20:48:55.495Z,101991.50
2023-01-20T20:51:08.316Z,101990.56
2023-01-20T20:53:12.529Z,101993.06
2023-01-20T20:55:17.678Z,101997.34
2023-01-20T20:57:22.304Z,102009.50
2023-01-20T20:59:28.711Z,102001.56
2023-01-20T21:01:34.721Z,101999.75
2023-01-20T21:03:39.836Z,102011.94
2023-01-20T21:05:47.132Z,102015.44
2023-01-20T21:07:51.791Z,102011.00
2023-01-20T21:09:56.378Z,102018.88
2023-01-20T21:12:01.405Z,102013.59
2023-01-20T21:14:07.420Z,102017.97
2023-01-20T21:16:16.973Z,102011.72
2023-01-20T21:18:21.561Z,102013.41
2023-01-20T21:20:26.006Z,102012.47
2023-01-20T21:22:30.551Z,102010.69
2023-01-20T21:24:35.116Z,102010.66
2023-01-20T21:26:40.044Z,102014.09
2023-01-20T21:28:45.795Z,102017.56
2023-01-20T21:30:50.254Z,102015.75
2023-01-20T21:32:56.745Z,102021.00
2023-01-20T21:35:02.188Z,102019.25
2023-01-20T21:37:07.665Z,102024.53
2023-01-20T21:39:15.135Z,102020.13
2023-01-20T21:41:21.099Z,102022.72
2023-01-20T21:43:43.443Z,102025.28
2023-01-20T21:45:54.508Z,102027.88
2023-01-20T21:48:20.802Z,102030.53
2023-01-20T21:50:42.271Z,102036.69
2023-01-20T21:52:45.818Z,102041.06
2023-01-20T21:54:50.579Z,102049.81
2023-01-20T21:56:55.367Z,102051.56
2023-01-20T21:58:59.713Z,102052.38
2023-01-20T22:01:04.186Z,102046.31
2023-01-20T22:03:10.624Z,102060.31
2023-01-20T22:05:16.322Z,102058.50
2023-01-20T22:07:25.665Z,102063.75
2023-01-20T22:09:30.088Z,102068.16
2023-01-20T22:11:34.464Z,102070.75
2023-01-20T22:13:39.937Z,102075.16
2023-01-20T22:15:44.813Z,102074.22
2023-01-20T22:17:49.279Z,102066.34
2023-01-20T22:19:56.238Z,102081.19
2023-01-20T22:22:02.232Z,102068.91
2023-01-20T22:24:07.232Z,102067.16
2023-01-20T22:26:12.175Z,102065.41
2023-01-20T22:28:17.099Z,102074.97
2023-01-20T22:30:22.037Z,102075.81
2023-01-20T22:32:26.903Z,102089.78
2023-01-20T22:34:31.881Z,102083.63
2023-01-20T22:36:37.814Z,102079.28
2023-01-20T22:38:41.965Z,102083.59
2023-01-20T22:40:46.523Z,102091.44
2023-01-20T22:42:50.709Z,102095.81
2023-01-20T22:44:56.180Z,102093.19
2023-01-20T22:47:00.468Z,102092.25
2023-01-20T22:49:04.997Z,102093.16
2023-01-20T22:51:11.855Z,102102.81
2023-01-20T22:53:18.216Z,102100.22
2023-01-20T22:55:22.616Z,102100.25
2023-01-20T22:57:27.113Z,102107.25
2023-01-20T22:59:31.057Z,102106.38
2023-01-20T23:01:37.652Z,102104.63
2023-01-20T23:03:41.932Z,102108.97
2023-01-20T23:05:53.519Z,102119.50
2023-01-20T23:07:57.775Z,102119.50
2023-01-20T23:10:04.068Z,102115.09
2023-01-20T23:12:08.614Z,102116.81
2023-01-20T23:14:14.493Z,102108.94
2023-01-20T23:16:22.687Z,102109.84
2023-01-20T23:18:27.336Z,102109.84
2023-01-20T23:20:32.143Z,102119.38
2023-01-20T23:22:36.258Z,102111.50
2023-01-20T23:24:40.160Z,102116.75
2023-01-20T23:26:45.699Z,102126.34
2023-01-20T23:28:50.715Z,102133.38
2023-01-20T23:31:01.511Z,102130.78
2023-01-20T23:33:07.974Z,102129.88
2023-01-20T23:35:12.941Z,102131.63
2023-01-20T23:37:18.202Z,102121.13
2023-01-20T23:39:22.269Z,102122.84
2023-01-20T23:41:26.971Z,102120.22
2023-01-20T23:43:32.726Z,102132.47
2023-01-20T23:45:36.519Z,102122.81
2023-01-20T23:47:41.125Z,102122.81
2023-01-20T23:49:44.837Z,102126.31
2023-01-20T23:51:49.165Z,102131.56
2023-01-20T23:53:53.327Z,102134.19
2023-01-20T23:56:02.772Z,102127.16
2023-01-20T23:58:07.459Z,102133.22
